Grayson, North Carolina
Current Conditions -  °F | °C
As of 2:15 PM on Thursday 27 Nov 2014 (Local Time) from KGEV Reporting Station
Overcast Overcast  
Wind Chill: 22°   Ceiling: 1800
Heat Index: 31°   Visibility: 10mi
Dew Point: 22°   Wind: 12mph
Humidity: 71%   Direction: 300°WNW
Pressure: 30.04"   Gusts: 22mph
Location:  36.4481°N, 81.6486°W
Report Text: KGEV 271915Z AUTO 30010G19KT 10SM OVC018 M01/M05 A3004 RMK AO2 T10061053
Loading
Personal Weather Stations






























Interactive Weather Map New forecast layout! Learn more

10-Day Weather Forecast

Advertisements
Track Severe Weather on mobile